Time;durP1;ratioP1;P1;durP2;ratioP2;P2;SDS_P1;SDS_P2;PMS_P1;PMS_P2;Temp;Humidity;BMP_temperature;BMP_pressure;BME280_temperature;BME280_humidity;BME280_pressure;Samples;Min_cycle;Max_cycle;Signal;HPM_P1;HPM_P2
2021/06/29 00:01:39;;;;;;;7.10;6.60;;;26.30;56.50;;;;;;4986946;28;20232;-66
2021/06/29 00:04:07;;;;;;;6.90;6.30;;;26.30;56.50;;;;;;4990900;28;20231;-66
2021/06/29 00:06:36;;;;;;;7.10;6.47;;;26.20;56.60;;;;;;4987791;28;20202;-65
2021/06/29 00:09:05;;;;;;;7.07;6.47;;;26.30;57.30;;;;;;4987073;28;20192;-66
2021/06/29 00:11:39;;;;;;;7.50;6.77;;;26.30;56.80;;;;;;4982142;28;20899;-66
2021/06/29 00:14:06;;;;;;;7.07;6.53;;;26.20;56.80;;;;;;4983409;28;20201;-66
2021/06/29 00:16:33;;;;;;;7.60;6.90;;;26.20;56.80;;;;;;4981242;28;20219;-66
2021/06/29 00:19:03;;;;;;;7.57;6.87;;;26.20;56.80;;;;;;4977743;28;20211;-65
2021/06/29 00:21:30;;;;;;;7.20;6.70;;;26.20;56.80;;;;;;4983549;28;20621;-65
2021/06/29 00:24:01;;;;;;;8.87;5.97;;;26.20;56.90;;;;;;4984223;28;20760;-66
2021/06/29 00:26:29;;;;;;;7.43;6.77;;;26.20;56.90;;;;;;4984539;28;20228;-65
2021/06/29 00:28:57;;;;;;;7.90;7.30;;;26.20;57.10;;;;;;4974927;28;20211;-65
2021/06/29 00:31:26;;;;;;;7.93;7.13;;;26.20;57.10;;;;;;4981952;28;20201;-65
2021/06/29 00:33:54;;;;;;;7.60;6.90;;;26.20;57.20;;;;;;4980107;28;20211;-65
2021/06/29 00:36:24;;;;;;;7.57;6.87;;;26.20;57.20;;;;;;4985148;28;20212;-65
2021/06/29 00:38:54;;;;;;;7.63;7.03;;;26.20;57.30;;;;;;4990975;28;20208;-65
2021/06/29 00:41:24;;;;;;;7.90;7.20;;;26.20;57.30;;;;;;4985285;28;20231;-65
2021/06/29 00:43:54;;;;;;;8.47;7.60;;;26.20;57.30;;;;;;4987733;28;20204;-65
2021/06/29 00:46:22;;;;;;;7.93;7.23;;;26.20;57.30;;;;;;4978751;28;20196;-65
2021/06/29 00:48:52;;;;;;;8.20;7.57;;;26.10;57.30;;;;;;4977728;28;20197;-65
2021/06/29 00:51:33;;;;;;;8.07;7.37;;;26.10;57.30;;;;;;4984684;28;20200;-65
2021/06/29 00:54:02;;;;;;;8.40;7.60;;;26.10;57.40;;;;;;4988378;28;20216;-65
2021/06/29 00:56:31;;;;;;;8.90;8.10;;;26.10;57.40;;;;;;4988766;28;20200;-64
2021/06/29 00:58:59;;;;;;;8.77;8.03;;;26.10;57.50;;;;;;4981187;28;20211;-65
2021/06/29 01:01:26;;;;;;;8.83;8.03;;;26.10;57.60;;;;;;4991976;28;20354;-65
2021/06/29 01:03:54;;;;;;;8.87;8.17;;;26.10;57.60;;;;;;4980937;28;20201;-65
2021/06/29 01:06:24;;;;;;;8.70;7.90;;;26.10;57.60;;;;;;4989120;28;20211;-65
2021/06/29 01:08:51;;;;;;;9.27;8.47;;;26.10;57.70;;;;;;4980523;28;20235;-65
2021/06/29 01:11:17;;;;;;;9.77;8.87;;;26.10;57.80;;;;;;4988985;28;20217;-65
2021/06/29 01:13:45;;;;;;;9.10;8.30;;;26.10;57.90;;;;;;4981881;28;20516;-64
2021/06/29 01:16:15;;;;;;;9.33;8.53;;;26.10;57.90;;;;;;4977597;28;20208;-64
2021/06/29 01:18:46;;;;;;;10.13;9.23;;;26.10;58.00;;;;;;4980927;28;20216;-64
2021/06/29 01:21:19;;;;;;;9.53;8.63;;;26.10;58.00;;;;;;4980791;28;20300;-64
2021/06/29 01:23:53;;;;;;;10.97;9.87;;;26.10;58.00;;;;;;4983711;28;20204;-65
2021/06/29 01:26:26;;;;;;;11.07;10.07;;;26.10;58.20;;;;;;4980339;28;20223;-65
2021/06/29 01:31:41;;;;;;;10.87;9.87;;;26.10;58.30;;;;;;4976577;28;20220;-64
2021/06/29 01:34:09;;;;;;;10.83;9.73;;;26.10;58.40;;;;;;4988081;28;20204;-63
2021/06/29 01:36:38;;;;;;;10.87;9.80;;;26.00;58.40;;;;;;4983987;28;20216;-64
2021/06/29 01:39:10;;;;;;;11.83;10.60;;;26.10;59.20;;;;;;4993478;28;20205;-63
2021/06/29 01:41:39;;;;;;;10.93;9.93;;;26.10;58.70;;;;;;4982328;28;20220;-64
2021/06/29 01:44:13;;;;;;;10.63;9.33;;;26.10;58.60;;;;;;4984712;28;20205;-64
2021/06/29 01:46:43;;;;;;;10.90;9.90;;;26.10;58.60;;;;;;4979856;28;20196;-64
2021/06/29 01:49:13;;;;;;;10.93;9.93;;;26.10;58.70;;;;;;4987765;28;20330;-64
2021/06/29 01:51:40;;;;;;;10.90;9.90;;;26.10;58.70;;;;;;4982210;28;20211;-65
2021/06/29 01:54:08;;;;;;;10.63;8.83;;;26.00;58.60;;;;;;4982177;28;20197;-63
2021/06/29 01:56:37;;;;;;;10.87;9.67;;;26.00;58.40;;;;;;4978506;28;20216;-63
2021/06/29 01:59:14;;;;;;;10.27;9.37;;;26.00;58.50;;;;;;4977170;28;20204;-64
2021/06/29 02:01:46;;;;;;;10.53;9.63;;;26.00;58.60;;;;;;4977157;28;20662;-64
2021/06/29 02:04:15;;;;;;;11.20;10.03;;;26.00;58.60;;;;;;4983221;28;20263;-64
2021/06/29 02:06:45;;;;;;;11.13;10.03;;;26.00;58.70;;;;;;4985012;28;20192;-64
2021/06/29 02:09:19;;;;;;;12.57;11.40;;;26.00;58.80;;;;;;4984660;28;20231;-64
2021/06/29 02:11:46;;;;;;;11.93;10.83;;;26.00;58.80;;;;;;4972554;28;20203;-64
2021/06/29 02:14:13;;;;;;;12.90;11.70;;;26.00;58.80;;;;;;4981882;28;20209;-64
2021/06/29 02:16:47;;;;;;;11.97;10.90;;;26.00;58.90;;;;;;4989264;28;20215;-64
2021/06/29 02:19:17;;;;;;;12.43;11.20;;;26.00;58.80;;;;;;4982394;28;20283;-64
2021/06/29 02:21:44;;;;;;;13.60;12.10;;;26.00;59.60;;;;;;4984753;28;20220;-64
2021/06/29 02:24:11;;;;;;;12.03;10.93;;;26.00;59.00;;;;;;4981070;28;20197;-64
2021/06/29 02:26:58;;;;;;;11.60;10.50;;;26.00;58.90;;;;;;4987511;28;20240;-64
2021/06/29 02:29:28;;;;;;;11.47;10.43;;;26.00;59.00;;;;;;4976438;28;20196;-65
2021/06/29 02:31:57;;;;;;;11.80;10.60;;;26.00;59.40;;;;;;4978257;28;20690;-65
2021/06/29 02:34:24;;;;;;;12.30;11.10;;;26.00;59.40;;;;;;4982988;28;20211;-65
2021/06/29 02:36:52;;;;;;;12.70;11.40;;;26.00;59.40;;;;;;4987372;28;20201;-66
2021/06/29 02:39:22;;;;;;;12.37;11.17;;;26.00;59.40;;;;;;4981970;28;20595;-65
2021/06/29 02:41:49;;;;;;;13.10;12.00;;;26.00;59.40;;;;;;4986429;28;20223;-65
2021/06/29 02:44:21;;;;;;;12.77;11.57;;;26.00;59.30;;;;;;4984120;28;20290;-65
2021/06/29 02:46:52;;;;;;;12.37;11.20;;;26.00;59.40;;;;;;4973003;28;20215;-65
2021/06/29 02:49:19;;;;;;;11.43;10.50;;;26.00;59.40;;;;;;4982109;28;20197;-65
2021/06/29 02:51:49;;;;;;;12.23;11.13;;;26.00;59.40;;;;;;4985305;28;20292;-65
2021/06/29 02:54:16;;;;;;;12.43;11.33;;;26.00;59.40;;;;;;4987042;28;20654;-65
2021/06/29 02:56:48;;;;;;;12.73;11.53;;;25.90;59.30;;;;;;4978635;28;20605;-65
2021/06/29 02:59:18;;;;;;;11.87;10.87;;;26.00;59.40;;;;;;4989375;28;20661;-65
2021/06/29 03:01:45;;;;;;;12.53;11.33;;;26.00;59.30;;;;;;4977399;28;20227;-65
2021/06/29 03:04:20;;;;;;;12.77;11.67;;;26.00;59.40;;;;;;4982819;28;20217;-65
2021/06/29 03:06:47;;;;;;;12.23;11.13;;;26.00;59.40;;;;;;4979602;28;20193;-65
2021/06/29 03:09:17;;;;;;;12.90;11.70;;;25.90;59.50;;;;;;4987874;28;20219;-65
2021/06/29 03:11:44;;;;;;;12.63;11.43;;;26.00;59.50;;;;;;4983821;28;20768;-65
2021/06/29 03:14:12;;;;;;;13.00;11.90;;;26.00;59.50;;;;;;4982944;28;20205;-65
2021/06/29 03:16:41;;;;;;;12.67;11.50;;;26.00;59.50;;;;;;4981714;28;20219;-65
2021/06/29 03:19:11;;;;;;;14.43;13.10;;;26.00;59.50;;;;;;4974088;28;20220;-66
2021/06/29 03:21:38;;;;;;;14.53;13.17;;;26.00;59.60;;;;;;4978869;28;20905;-65
2021/06/29 03:24:08;;;;;;;14.67;13.27;;;26.00;59.70;;;;;;4974852;28;20197;-65
2021/06/29 03:26:34;;;;;;;13.13;12.03;;;25.90;59.70;;;;;;4983601;28;20228;-65
2021/06/29 03:29:04;;;;;;;14.83;13.53;;;26.00;59.70;;;;;;4970743;28;20201;-66
2021/06/29 03:31:32;;;;;;;15.37;13.87;;;25.90;59.70;;;;;;4985233;28;20193;-65
2021/06/29 03:34:00;;;;;;;15.30;13.90;;;25.90;59.80;;;;;;4978549;28;20204;-65
2021/06/29 03:36:30;;;;;;;15.80;14.37;;;25.90;59.70;;;;;;4985625;28;20201;-65
2021/06/29 03:38:57;;;;;;;15.13;13.83;;;25.90;60.00;;;;;;4980781;28;20220;-65
2021/06/29 03:41:27;;;;;;;15.33;14.03;;;25.90;59.80;;;;;;4982496;28;20193;-66
2021/06/29 03:43:58;;;;;;;15.40;14.00;;;25.90;59.80;;;;;;4982909;28;20220;-65
2021/06/29 03:46:26;;;;;;;16.27;14.77;;;25.90;59.80;;;;;;4988150;28;20688;-65
2021/06/29 03:48:58;;;;;;;17.27;15.67;;;25.90;59.80;;;;;;4981950;28;20644;-65
2021/06/29 03:51:26;;;;;;;16.90;15.37;;;25.90;59.80;;;;;;4991546;28;20196;-65
2021/06/29 03:53:55;;;;;;;16.70;15.20;;;25.90;59.80;;;;;;4972317;28;20196;-65
2021/06/29 03:56:31;;;;;;;16.50;15.10;;;25.90;59.90;;;;;;4988016;28;20213;-65
2021/06/29 03:59:22;;;;;;;16.97;15.57;;;25.90;59.90;;;;;;4984030;28;20201;-65
2021/06/29 04:01:49;;;;;;;17.43;15.67;;;25.90;59.90;;;;;;4990665;28;20216;-63
2021/06/29 04:04:19;;;;;;;17.10;15.57;;;25.90;59.90;;;;;;4985897;28;20199;-63
2021/06/29 04:06:48;;;;;;;17.20;15.53;;;25.90;59.90;;;;;;4964667;28;20207;-64
2021/06/29 04:09:19;;;;;;;19.30;17.50;;;25.90;59.90;;;;;;4988807;28;20514;-64
2021/06/29 04:11:48;;;;;;;17.67;16.17;;;25.90;60.00;;;;;;4994155;28;20392;-64
2021/06/29 04:14:17;;;;;;;18.27;16.57;;;25.90;59.90;;;;;;4988121;28;20192;-64
2021/06/29 04:16:49;;;;;;;18.00;16.17;;;25.90;60.00;;;;;;4992055;28;20213;-64
2021/06/29 04:19:17;;;;;;;17.53;15.93;;;25.90;60.10;;;;;;4990037;28;20180;-64
2021/06/29 04:21:47;;;;;;;18.03;16.50;;;25.90;60.20;;;;;;4982266;28;21587;-64
2021/06/29 04:24:18;;;;;;;18.17;16.57;;;25.90;60.10;;;;;;4986905;28;20196;-64
2021/06/29 04:26:47;;;;;;;19.03;17.03;;;25.90;60.20;;;;;;4981783;28;20306;-65
2021/06/29 04:29:15;;;;;;;18.90;17.10;;;25.90;60.20;;;;;;4975833;28;20199;-65
2021/06/29 04:31:43;;;;;;;19.40;17.57;;;25.90;60.20;;;;;;4980039;28;20204;-65
2021/06/29 04:34:10;;;;;;;18.07;16.33;;;25.90;60.30;;;;;;4990188;28;20267;-64
2021/06/29 04:36:41;;;;;;;19.20;17.40;;;25.90;60.40;;;;;;4982111;28;20730;-65
2021/06/29 04:39:14;;;;;;;18.50;16.23;;;25.90;60.30;;;;;;4990060;28;20208;-64
2021/06/29 04:41:43;;;;;;;19.73;17.87;;;25.90;60.20;;;;;;4982297;28;20587;-66
2021/06/29 04:44:16;;;;;;;19.77;17.17;;;25.90;60.40;;;;;;4978053;28;20220;-66
2021/06/29 04:46:48;;;;;;;18.70;17.00;;;25.90;60.40;;;;;;4984715;28;20208;-66
2021/06/29 04:49:20;;;;;;;18.43;16.57;;;25.90;60.40;;;;;;4986761;28;20549;-66
2021/06/29 04:51:49;;;;;;;17.53;15.83;;;25.90;60.20;;;;;;4985012;28;20653;-66
2021/06/29 04:54:17;;;;;;;18.17;16.57;;;25.90;60.10;;;;;;4984786;28;20205;-66
2021/06/29 04:56:46;;;;;;;18.27;16.37;;;25.90;60.20;;;;;;4983791;28;20200;-66
2021/06/29 04:59:15;;;;;;;17.63;15.87;;;25.90;60.20;;;;;;4979625;28;20189;-66
2021/06/29 05:01:44;;;;;;;18.60;16.83;;;25.90;60.00;;;;;;4978893;28;20776;-64
2021/06/29 05:04:12;;;;;;;19.37;16.10;;;25.90;60.10;;;;;;4981569;28;20274;-64
2021/06/29 05:06:40;;;;;;;19.57;17.70;;;25.90;60.10;;;;;;4990952;28;20227;-64
2021/06/29 05:09:12;;;;;;;18.93;17.13;;;25.90;60.40;;;;;;4980171;28;20235;-64
2021/06/29 05:11:43;;;;;;;19.63;17.83;;;25.90;60.40;;;;;;4978834;28;20208;-66
2021/06/29 05:14:13;;;;;;;19.90;17.97;;;25.90;60.50;;;;;;4981113;28;20506;-66
2021/06/29 05:16:42;;;;;;;20.07;18.13;;;25.90;60.30;;;;;;4983639;28;20212;-65
2021/06/29 05:19:11;;;;;;;19.07;17.23;;;25.90;60.30;;;;;;4981003;28;20202;-65
2021/06/29 05:21:42;;;;;;;56.80;29.80;;;25.90;60.20;;;;;;4982970;28;20267;-65
2021/06/29 05:24:12;;;;;;;48.80;29.57;;;25.90;61.60;;;;;;4983897;28;20224;-65
2021/06/29 05:26:42;;;;;;;39.77;29.20;;;25.90;62.30;;;;;;4987427;28;20654;-66
2021/06/29 05:29:13;;;;;;;39.07;27.13;;;25.90;62.50;;;;;;4985985;28;20207;-65
2021/06/29 05:31:41;;;;;;;31.07;27.60;;;25.90;62.50;;;;;;4985454;28;20208;-64
2021/06/29 05:34:12;;;;;;;32.33;28.97;;;25.90;62.50;;;;;;4982828;28;20795;-65
2021/06/29 05:36:43;;;;;;;33.13;29.57;;;25.90;62.40;;;;;;4986551;28;20209;-65
2021/06/29 05:39:15;;;;;;;32.80;29.60;;;25.90;62.10;;;;;;4969097;28;20212;-66
2021/06/29 05:41:44;;;;;;;32.70;29.50;;;25.80;61.90;;;;;;4992576;28;20204;-65
2021/06/29 05:44:12;;;;;;;115.83;48.97;;;25.90;61.90;;;;;;4995768;28;20284;-64
2021/06/29 05:46:42;;;;;;;80.87;41.37;;;25.90;62.20;;;;;;4984446;28;20192;-67
2021/06/29 05:49:13;;;;;;;97.43;45.67;;;25.90;61.90;;;;;;4997375;28;20212;-66
2021/06/29 05:51:47;;;;;;;71.97;35.77;;;25.60;55.40;;;;;;4993534;28;20224;-66
2021/06/29 05:54:16;;;;;;;58.03;31.40;;;25.50;54.20;;;;;;4980893;28;20231;-66
2021/06/29 05:56:44;;;;;;;53.00;29.83;;;25.40;53.30;;;;;;4986717;28;20283;-66
2021/06/29 05:59:11;;;;;;;44.97;25.47;;;25.20;52.60;;;;;;4986338;28;20197;-67
2021/06/29 06:01:38;;;;;;;42.10;24.30;;;25.00;52.10;;;;;;4982221;28;20201;-66
2021/06/29 06:04:11;;;;;;;39.80;23.70;;;24.80;52.00;;;;;;4984323;28;20251;-68
2021/06/29 06:06:39;;;;;;;30.87;21.00;;;24.70;51.60;;;;;;4975961;28;20557;-69
2021/06/29 06:09:07;;;;;;;29.93;18.90;;;24.40;51.60;;;;;;4984175;28;20208;-69
2021/06/29 06:11:35;;;;;;;28.10;18.20;;;24.30;52.00;;;;;;4982250;28;20206;-66
2021/06/29 06:14:06;;;;;;;27.87;17.73;;;24.10;52.40;;;;;;4980812;28;20210;-66
2021/06/29 06:16:34;;;;;;;24.30;17.10;;;24.00;52.30;;;;;;4979894;28;20211;-71
2021/06/29 06:19:01;;;;;;;20.53;15.20;;;24.00;52.20;;;;;;4979345;28;20300;-69
2021/06/29 06:21:28;;;;;;;18.00;14.53;;;23.90;52.00;;;;;;4976839;28;20296;-69
2021/06/29 06:23:59;;;;;;;16.87;14.30;;;23.90;51.70;;;;;;4976954;28;20216;-69
2021/06/29 06:26:28;;;;;;;19.83;14.50;;;23.90;51.40;;;;;;4978844;28;20205;-67
2021/06/29 06:28:58;;;;;;;17.77;13.47;;;23.90;51.30;;;;;;4977050;28;20248;-69
2021/06/29 06:31:26;;;;;;;17.47;13.40;;;23.90;51.10;;;;;;4979976;28;20893;-69
2021/06/29 06:33:54;;;;;;;14.73;13.10;;;23.80;51.50;;;;;;4982039;28;20597;-68
2021/06/29 06:36:23;;;;;;;16.10;13.03;;;23.80;51.60;;;;;;4976067;28;20203;-67
2021/06/29 06:38:52;;;;;;;16.30;13.60;;;23.80;51.80;;;;;;4976846;28;20208;-70
2021/06/29 06:41:19;;;;;;;14.30;12.77;;;23.80;52.10;;;;;;4979414;28;20197;-69
2021/06/29 06:43:50;;;;;;;14.57;12.70;;;23.80;51.80;;;;;;4986487;28;20224;-70
2021/06/29 06:46:19;;;;;;;14.43;12.77;;;23.80;51.30;;;;;;4978900;28;20332;-65
2021/06/29 06:49:09;;;;;;;13.93;12.53;;;23.80;51.20;;;;;;4983177;28;20200;-67
2021/06/29 06:51:39;;;;;;;14.53;12.23;;;23.80;51.50;;;;;;4976802;28;20209;-69
2021/06/29 06:54:11;;;;;;;14.40;12.90;;;23.80;52.00;;;;;;4976782;28;20313;-67
2021/06/29 06:56:40;;;;;;;14.43;12.03;;;23.70;52.10;;;;;;4976998;28;20241;-66
2021/06/29 06:59:08;;;;;;;13.60;12.27;;;23.70;52.20;;;;;;4975743;28;20650;-66
2021/06/29 07:01:41;;;;;;;13.40;11.93;;;23.70;51.70;;;;;;4977326;28;20666;-68
2021/06/29 07:04:09;;;;;;;13.57;12.13;;;23.60;51.30;;;;;;4975344;28;20231;-69
2021/06/29 07:06:40;;;;;;;14.83;12.43;;;23.50;49.60;;;;;;4979336;28;20208;-70
2021/06/29 07:09:07;;;;;;;14.00;12.50;;;23.50;48.70;;;;;;4979085;28;20196;-70
2021/06/29 07:11:47;;;;;;;14.53;12.27;;;23.40;49.10;;;;;;4987915;28;20204;-66
2021/06/29 07:14:18;;;;;;;14.40;12.70;;;23.50;55.40;;;;;;4980040;28;20209;-66
2021/06/29 07:16:46;;;;;;;14.97;13.40;;;23.60;59.10;;;;;;4976487;28;20212;-68
2021/06/29 07:19:15;;;;;;;14.60;13.07;;;23.70;62.30;;;;;;4980090;28;20208;-67
2021/06/29 07:21:45;;;;;;;14.10;12.73;;;23.80;58.40;;;;;;4985024;28;20208;-68
2021/06/29 07:24:12;;;;;;;15.20;12.37;;;23.70;53.80;;;;;;4976707;28;20843;-67
2021/06/29 07:26:40;;;;;;;14.13;12.63;;;23.70;51.30;;;;;;4983699;28;20232;-66
2021/06/29 07:29:13;;;;;;;17.80;13.70;;;23.70;50.10;;;;;;4977542;28;20231;-66
2021/06/29 07:31:41;;;;;;;15.63;13.33;;;23.60;49.40;;;;;;4977116;28;20213;-67
2021/06/29 07:34:08;;;;;;;16.97;13.87;;;23.60;48.90;;;;;;4981634;28;20204;-67
2021/06/29 07:36:35;;;;;;;16.17;13.73;;;23.50;52.20;;;;;;4988663;28;20208;-67
2021/06/29 07:39:03;;;;;;;14.73;13.23;;;23.50;56.90;;;;;;4984989;28;20646;-70
2021/06/29 07:41:31;;;;;;;18.17;14.63;;;23.60;60.00;;;;;;4975752;28;20204;-71
2021/06/29 07:43:57;;;;;;;15.03;13.17;;;23.80;60.80;;;;;;4980393;28;20220;-71
2021/06/29 07:46:26;;;;;;;18.97;14.67;;;23.80;55.70;;;;;;4987473;28;20189;-68
2021/06/29 07:48:52;;;;;;;15.57;13.93;;;23.80;52.60;;;;;;4988796;28;20741;-68
2021/06/29 07:51:20;;;;;;;15.93;13.83;;;23.70;51.80;;;;;;4980102;28;20708;-67
2021/06/29 07:53:47;;;;;;;16.07;14.27;;;23.70;56.60;;;;;;4978656;28;20229;-68
2021/06/29 07:56:14;;;;;;;18.00;14.27;;;23.80;60.10;;;;;;4978634;28;20205;-71
2021/06/29 07:58:42;;;;;;;19.17;14.80;;;23.80;56.40;;;;;;4976478;28;20208;-69
2021/06/29 08:01:12;;;;;;;15.33;13.73;;;23.80;53.10;;;;;;4982643;28;20201;-70
2021/06/29 08:03:39;;;;;;;19.23;14.40;;;23.70;51.20;;;;;;4986456;28;20217;-69
2021/06/29 08:06:07;;;;;;;15.63;14.03;;;23.60;50.20;;;;;;4985906;28;20279;-68
2021/06/29 08:08:35;;;;;;;20.20;14.47;;;23.60;54.00;;;;;;4989416;28;20211;-70
2021/06/29 08:11:06;;;;;;;23.63;14.03;;;23.70;58.40;;;;;;4981937;28;20207;-68
2021/06/29 08:13:34;;;;;;;16.60;14.20;;;23.80;59.80;;;;;;4982063;28;20232;-69
2021/06/29 08:16:03;;;;;;;18.70;15.20;;;23.80;54.90;;;;;;4975620;28;20815;-70
2021/06/29 08:18:30;;;;;;;15.43;13.77;;;23.80;52.20;;;;;;4990369;28;20211;-67
2021/06/29 08:20:58;;;;;;;17.73;14.17;;;23.80;50.70;;;;;;4979270;28;20232;-70
2021/06/29 08:23:26;;;;;;;16.47;13.90;;;23.70;51.00;;;;;;4989972;28;20306;-70
2021/06/29 08:25:54;;;;;;;15.60;13.97;;;23.70;56.00;;;;;;4975593;28;20201;-67
2021/06/29 08:28:22;;;;;;;14.83;13.23;;;23.80;59.30;;;;;;4975130;28;20224;-67
2021/06/29 08:30:51;;;;;;;14.63;13.13;;;23.90;58.30;;;;;;4968350;28;20215;-69
2021/06/29 08:33:21;;;;;;;14.57;12.97;;;23.90;54.20;;;;;;4987135;28;20278;-69
2021/06/29 08:35:50;;;;;;;14.53;13.03;;;23.80;51.70;;;;;;4979868;28;20643;-69
2021/06/29 08:38:18;;;;;;;13.90;12.10;;;23.80;50.60;;;;;;4977617;28;20643;-68
2021/06/29 08:40:46;;;;;;;15.47;11.83;;;23.70;52.70;;;;;;4979537;28;20225;-70
2021/06/29 08:43:13;;;;;;;14.03;11.73;;;23.80;57.40;;;;;;4991504;28;20220;-69
2021/06/29 08:45:41;;;;;;;13.70;12.30;;;23.90;60.40;;;;;;4978408;28;20224;-71
2021/06/29 08:48:08;;;;;;;13.13;11.03;;;23.90;56.10;;;;;;4986107;28;20205;-69
2021/06/29 08:50:38;;;;;;;12.50;10.60;;;23.90;52.80;;;;;;4982191;28;20232;-69
2021/06/29 08:53:10;;;;;;;11.63;10.43;;;23.90;51.00;;;;;;4976994;28;20201;-69
2021/06/29 08:55:49;;;;;;;12.23;10.93;;;23.90;55.40;;;;;;4982660;28;20225;-67
2021/06/29 08:58:21;;;;;;;11.20;9.27;;;23.90;59.40;;;;;;4988467;28;20215;-68
2021/06/29 09:00:49;;;;;;;11.40;10.30;;;24.00;56.90;;;;;;4984658;28;20504;-67
2021/06/29 09:03:16;;;;;;;11.40;9.70;;;24.00;53.30;;;;;;4977843;28;20204;-64
2021/06/29 09:05:46;;;;;;;16.03;9.83;;;23.90;51.30;;;;;;4976411;28;20221;-68
2021/06/29 09:08:18;;;;;;;9.80;8.77;;;23.90;53.60;;;;;;4974275;28;20252;-69
2021/06/29 09:11:05;;;;;;;9.30;8.40;;;23.90;56.30;;;;;;4981783;28;20247;-68
2021/06/29 09:13:33;;;;;;;9.50;8.60;;;23.90;58.50;;;;;;4975876;28;20920;-70
2021/06/29 09:16:03;;;;;;;9.27;7.67;;;24.00;55.60;;;;;;4973999;28;20208;-67
2021/06/29 09:18:41;;;;;;;9.70;7.23;;;24.10;55.90;;;;;;4978265;28;20212;-67
2021/06/29 09:21:14;;;;;;;8.50;7.70;;;24.30;55.80;;;;;;4979215;28;20218;-66
2021/06/29 09:23:49;;;;;;;6.70;6.10;;;24.50;55.50;;;;;;4996140;28;20664;-67
2021/06/29 09:26:23;;;;;;;7.00;6.40;;;24.60;55.30;;;;;;4981437;28;20661;-66
2021/06/29 09:29:02;;;;;;;7.80;7.00;;;24.80;55.30;;;;;;4983551;28;20298;-65
2021/06/29 09:31:35;;;;;;;7.90;7.10;;;24.90;55.20;;;;;;4977570;28;20193;-65
2021/06/29 09:34:07;;;;;;;7.03;6.33;;;25.00;55.10;;;;;;4983213;28;20215;-66
2021/06/29 09:36:40;;;;;;;7.30;6.20;;;25.10;55.00;;;;;;4982378;28;20436;-66
2021/06/29 09:39:19;;;;;;;6.83;6.23;;;25.20;55.00;;;;;;4977482;28;20195;-64
2021/06/29 09:41:48;;;;;;;6.87;6.27;;;25.30;54.90;;;;;;4970924;28;20224;-64
2021/06/29 09:44:20;;;;;;;7.40;6.33;;;25.40;54.90;;;;;;4972353;28;20522;-64
2021/06/29 09:46:53;;;;;;;6.70;6.13;;;25.40;54.80;;;;;;4980683;28;20214;-65
2021/06/29 09:49:27;;;;;;;6.97;6.33;;;25.50;54.90;;;;;;4973215;28;20211;-63
2021/06/29 09:52:02;;;;;;;7.07;6.37;;;25.60;55.00;;;;;;4977123;28;20234;-64
2021/06/29 09:54:36;;;;;;;6.77;6.17;;;25.70;55.00;;;;;;4974322;28;20199;-64
2021/06/29 09:57:23;;;;;;;6.97;6.27;;;25.70;54.90;;;;;;4979704;28;20892;-63
2021/06/29 09:59:54;;;;;;;6.40;5.83;;;25.80;54.90;;;;;;4982720;28;20231;-67
2021/06/29 10:02:30;;;;;;;6.80;6.20;;;25.90;54.90;;;;;;4979281;28;20337;-67
2021/06/29 10:05:19;;;;;;;7.50;6.13;;;26.00;55.00;;;;;;4984394;28;20238;-65
2021/06/29 10:07:48;;;;;;;7.10;6.40;;;26.00;54.90;;;;;;4978865;28;20208;-67
2021/06/29 10:10:18;;;;;;;7.00;6.40;;;26.10;55.00;;;;;;4981919;28;20255;-67
2021/06/29 10:12:46;;;;;;;8.07;6.43;;;26.10;54.90;;;;;;4980762;28;20254;-66
2021/06/29 10:15:14;;;;;;;6.73;6.13;;;26.10;54.80;;;;;;4973748;28;20206;-66
2021/06/29 10:17:42;;;;;;;7.80;7.10;;;26.10;54.70;;;;;;4968487;28;20219;-67
2021/06/29 10:20:27;;;;;;;7.00;6.40;;;26.10;54.70;;;;;;4976669;28;20205;-68
2021/06/29 10:23:00;;;;;;;8.93;8.10;;;26.10;54.80;;;;;;4980026;28;20188;-68
2021/06/29 10:25:27;;;;;;;8.70;7.90;;;26.10;55.10;;;;;;4979284;28;20228;-67
2021/06/29 10:28:00;;;;;;;9.03;8.23;;;26.10;55.30;;;;;;4965050;28;20225;-68
2021/06/29 10:30:29;;;;;;;9.40;8.57;;;26.20;55.60;;;;;;4976905;28;20217;-67
2021/06/29 10:32:56;;;;;;;9.83;8.87;;;26.20;55.50;;;;;;4979295;28;20279;-67
2021/06/29 10:35:26;;;;;;;9.20;8.40;;;26.20;55.50;;;;;;4979146;28;20201;-67
2021/06/29 10:37:55;;;;;;;10.20;9.30;;;26.20;55.50;;;;;;4982919;28;20204;-67
2021/06/29 10:40:27;;;;;;;9.63;8.67;;;26.20;55.50;;;;;;4972733;28;20867;-68
2021/06/29 10:43:01;;;;;;;8.80;7.90;;;26.20;55.50;;;;;;4980702;28;20225;-67
2021/06/29 10:45:35;;;;;;;8.90;8.10;;;26.20;55.50;;;;;;4976075;28;20223;-67
2021/06/29 10:48:27;;;;;;;10.20;9.30;;;26.20;55.50;;;;;;4984020;28;20195;-67
2021/06/29 10:50:58;;;;;;;10.40;9.50;;;26.30;55.60;;;;;;4978146;28;20231;-67
2021/06/29 10:53:45;;;;;;;9.80;8.90;;;26.30;55.60;;;;;;4980892;28;20292;-68
2021/06/29 10:56:20;;;;;;;8.87;8.07;;;26.30;55.50;;;;;;4980287;28;20338;-68
2021/06/29 10:59:09;;;;;;;9.63;8.63;;;26.30;55.50;;;;;;4983726;28;20213;-67
2021/06/29 11:01:56;;;;;;;10.10;8.95;;;26.30;55.50;;;;;;4980874;28;20430;-65
2021/06/29 11:04:50;;;;;;;10.53;9.63;;;26.40;56.70;;;;;;4976631;28;20239;-66
2021/06/29 11:07:31;;;;;;;9.53;8.67;;;26.20;49.30;;;;;;4983001;28;20201;-66
2021/06/29 11:10:13;;;;;;;9.73;8.80;;;25.90;46.80;;;;;;4978394;28;20761;-66
2021/06/29 11:12:52;;;;;;;9.90;8.93;;;25.60;46.60;;;;;;4982790;28;20209;-66
2021/06/29 11:15:53;;;;;;;9.57;8.30;;;25.40;46.70;;;;;;4981990;28;20212;-65
2021/06/29 11:18:48;;;;;;;9.47;8.00;;;25.10;46.80;;;;;;4983265;28;20886;-64
2021/06/29 11:21:19;;;;;;;9.40;8.60;;;25.00;46.70;;;;;;4978246;28;20196;-66
2021/06/29 11:23:46;;;;;;;9.70;8.80;;;24.90;52.20;;;;;;4978188;28;20796;-66
2021/06/29 11:26:16;;;;;;;10.03;9.13;;;25.00;56.40;;;;;;4980645;28;20196;-67
2021/06/29 11:29:09;;;;;;;11.33;10.20;;;25.10;59.40;;;;;;4980267;28;20290;-64
2021/06/29 11:31:40;;;;;;;13.20;11.20;;;25.20;60.20;;;;;;4978498;28;20204;-64
2021/06/29 11:34:11;;;;;;;11.80;10.70;;;25.20;54.80;;;;;;4974088;28;20220;-64
2021/06/29 11:36:41;;;;;;;11.97;10.87;;;25.20;51.30;;;;;;4982755;28;20243;-64
2021/06/29 11:39:17;;;;;;;12.40;10.30;;;25.10;49.40;;;;;;4980110;28;20213;-65
2021/06/29 11:41:52;;;;;;;10.87;9.87;;;25.00;48.10;;;;;;4984256;28;20234;-64
2021/06/29 11:44:19;;;;;;;11.50;10.40;;;24.90;50.00;;;;;;4977969;28;20231;-64
2021/06/29 11:46:53;;;;;;;11.10;9.87;;;24.90;55.20;;;;;;4974745;28;20198;-65
2021/06/29 11:49:36;;;;;;;11.90;10.80;;;25.00;58.90;;;;;;4978644;28;20552;-65
2021/06/29 11:52:17;;;;;;;11.60;10.40;;;25.20;61.50;;;;;;4974652;28;20196;-64
2021/06/29 11:55:17;;;;;;;13.40;10.20;;;25.20;58.20;;;;;;4977951;28;20223;-65
2021/06/29 11:57:46;;;;;;;11.37;10.33;;;25.20;53.20;;;;;;4982986;28;20737;-65
2021/06/29 12:00:30;;;;;;;12.93;10.93;;;25.10;50.50;;;;;;4981393;28;20216;-66
2021/06/29 12:03:02;;;;;;;12.73;11.53;;;25.00;49.20;;;;;;4987290;28;20763;-66
2021/06/29 12:05:35;;;;;;;12.23;11.13;;;24.90;48.70;;;;;;4987333;28;20335;-66
2021/06/29 12:08:06;;;;;;;11.20;10.10;;;24.80;48.50;;;;;;4996344;28;20204;-66
2021/06/29 12:10:39;;;;;;;11.73;10.53;;;24.80;55.00;;;;;;4996302;28;20189;-66
2021/06/29 12:13:19;;;;;;;11.13;10.13;;;24.90;59.00;;;;;;4990005;28;20231;-68
2021/06/29 12:15:51;;;;;;;12.23;11.00;;;25.00;61.70;;;;;;4988913;28;20207;-66
2021/06/29 12:18:23;;;;;;;13.60;9.77;;;25.10;60.10;;;;;;4985492;28;20205;-64
2021/06/29 12:20:52;;;;;;;9.83;8.83;;;25.10;54.80;;;;;;4988104;28;20231;-63
2021/06/29 12:23:24;;;;;;;10.03;9.00;;;25.00;51.80;;;;;;4986825;28;20291;-66
2021/06/29 12:25:57;;;;;;;10.30;8.77;;;24.90;49.70;;;;;;4983551;28;20213;-67
2021/06/29 12:28:27;;;;;;;9.87;8.97;;;24.80;48.60;;;;;;4985652;28;20236;-69
2021/06/29 12:30:56;;;;;;;9.07;8.23;;;24.70;52.10;;;;;;4984030;28;20212;-68
2021/06/29 12:33:24;;;;;;;9.33;8.53;;;24.70;56.60;;;;;;4986478;28;20216;-68
2021/06/29 12:35:52;;;;;;;16.63;9.23;;;24.90;60.00;;;;;;4990176;28;20219;-68
2021/06/29 12:38:25;;;;;;;10.23;8.67;;;25.00;62.20;;;;;;4979203;28;20768;-66
2021/06/29 12:41:01;;;;;;;9.43;8.60;;;25.00;58.80;;;;;;4986401;28;20215;-67
2021/06/29 12:43:32;;;;;;;11.73;8.43;;;25.00;53.80;;;;;;4990905;28;20457;-65
2021/06/29 12:46:17;;;;;;;9.03;8.17;;;24.90;51.00;;;;;;4990835;28;20342;-63
2021/06/29 12:49:08;;;;;;;9.47;8.37;;;24.80;49.40;;;;;;4986954;28;20645;-64
2021/06/29 12:51:35;;;;;;;9.10;8.30;;;24.70;48.40;;;;;;4982808;28;20638;-64
2021/06/29 12:54:06;;;;;;;8.87;8.07;;;24.70;53.60;;;;;;4992011;28;20200;-67
2021/06/29 12:56:42;;;;;;;10.50;7.93;;;24.70;57.90;;;;;;4992580;28;20184;-69